createdAt,value
2023-03-31T00:00:47.136Z,998.50
2023-03-31T00:01:47.088Z,998.49
2023-03-31T00:02:47.102Z,998.44
2023-03-31T00:03:47.098Z,998.77
2023-03-31T00:04:47.000Z,998.47
2023-03-31T00:05:46.935Z,998.66
2023-03-31T00:06:46.896Z,998.44
2023-03-31T00:07:46.854Z,998.78
2023-03-31T00:08:46.792Z,998.76
2023-03-31T00:09:46.764Z,998.43
2023-03-31T00:10:46.736Z,998.75
2023-03-31T00:11:46.694Z,998.39
2023-03-31T00:12:46.633Z,998.38
2023-03-31T00:13:46.598Z,998.34
2023-03-31T00:14:46.569Z,998.36
2023-03-31T00:15:46.517Z,998.28
2023-03-31T00:16:46.538Z,998.34
2023-03-31T00:17:46.498Z,998.63
2023-03-31T00:18:46.433Z,998.66
2023-03-31T00:19:46.352Z,998.28
2023-03-31T00:20:46.333Z,998.61
2023-03-31T00:21:46.278Z,998.26
2023-03-31T00:22:46.242Z,998.24
2023-03-31T00:23:46.207Z,998.20
2023-03-31T00:24:46.191Z,998.18
2023-03-31T00:25:46.117Z,998.16
2023-03-31T00:26:46.077Z,998.10
2023-03-31T00:27:46.034Z,998.43
2023-03-31T00:28:45.991Z,998.33
2023-03-31T00:29:45.951Z,998.10
2023-03-31T00:30:45.956Z,998.09
2023-03-31T00:31:45.942Z,998.41
2023-03-31T00:32:45.876Z,998.38
2023-03-31T00:33:45.788Z,998.36
2023-03-31T00:34:45.752Z,998.04
2023-03-31T00:35:45.773Z,997.97
2023-03-31T00:36:45.701Z,998.27
2023-03-31T00:37:45.634Z,997.94
2023-03-31T00:38:45.583Z,998.10
2023-03-31T00:39:45.565Z,997.91
2023-03-31T00:40:45.527Z,997.87
2023-03-31T00:41:45.487Z,997.79
2023-03-31T00:42:45.425Z,998.03
2023-03-31T00:43:45.386Z,997.73
2023-03-31T00:44:45.347Z,998.11
2023-03-31T00:45:45.310Z,997.71
2023-03-31T00:46:45.280Z,998.00
2023-03-31T00:47:45.339Z,997.71
2023-03-31T00:48:45.862Z,997.92
2023-03-31T00:49:45.163Z,997.59
2023-03-31T00:50:45.115Z,997.52
2023-03-31T00:51:45.067Z,997.44
2023-03-31T00:52:45.021Z,997.44
2023-03-31T00:53:45.025Z,997.42
2023-03-31T00:54:44.959Z,997.40
2023-03-31T00:55:44.918Z,997.38
2023-03-31T00:56:44.873Z,997.33
2023-03-31T00:57:44.824Z,997.29
2023-03-31T00:58:44.800Z,997.32
2023-03-31T00:59:44.762Z,997.25
2023-03-31T01:00:44.697Z,997.23
2023-03-31T01:01:44.740Z,997.50
2023-03-31T01:02:44.660Z,997.36
2023-03-31T01:03:44.699Z,997.46
2023-03-31T01:04:44.549Z,997.10
2023-03-31T01:05:44.533Z,997.03
2023-03-31T01:06:44.487Z,997.39
2023-03-31T01:07:44.497Z,997.37
2023-03-31T01:08:44.392Z,997.06
2023-03-31T01:09:44.359Z,997.42
2023-03-31T01:10:44.307Z,997.39
2023-03-31T01:11:44.272Z,997.39
2023-03-31T01:12:44.243Z,997.07
2023-03-31T01:13:44.206Z,997.01
2023-03-31T01:14:44.162Z,997.39
2023-03-31T01:15:44.115Z,997.36
2023-03-31T01:16:44.177Z,997.10
2023-03-31T01:17:44.136Z,997.37
2023-03-31T01:18:44.079Z,997.06
2023-03-31T01:19:43.965Z,997.03
2023-03-31T01:20:43.922Z,997.03
2023-03-31T01:21:43.885Z,997.00
2023-03-31T01:22:54.520Z,996.97
2023-03-31T01:23:43.774Z,996.90
2023-03-31T01:24:43.746Z,997.09
2023-03-31T01:25:43.725Z,996.87
2023-03-31T01:26:43.678Z,996.85
2023-03-31T01:27:43.638Z,996.86
2023-03-31T01:28:43.577Z,996.78
2023-03-31T01:29:43.544Z,996.77
2023-03-31T01:30:43.521Z,997.11
2023-03-31T01:31:43.642Z,997.09
2023-03-31T01:32:43.425Z,997.10
2023-03-31T01:33:43.372Z,996.74
2023-03-31T01:34:43.342Z,997.00
2023-03-31T01:35:43.405Z,997.01
2023-03-31T01:36:43.273Z,997.02
2023-03-31T01:37:43.271Z,996.66
2023-03-31T01:38:43.203Z,996.65
2023-03-31T01:39:43.179Z,996.63
2023-03-31T01:40:43.118Z,996.67
2023-03-31T01:41:43.099Z,996.60
2023-03-31T01:42:43.006Z,996.63
2023-03-31T01:43:43.011Z,996.61
2023-03-31T01:44:42.946Z,996.58
2023-03-31T01:45:42.904Z,996.56
2023-03-31T01:46:42.876Z,996.57
2023-03-31T01:47:42.853Z,996.64
2023-03-31T01:48:42.785Z,996.54
2023-03-31T01:49:42.751Z,996.87
2023-03-31T01:50:42.687Z,996.55
2023-03-31T01:51:42.702Z,996.86
2023-03-31T01:52:42.617Z,996.85
2023-03-31T01:53:42.582Z,996.50
2023-03-31T01:54:42.569Z,996.83
2023-03-31T01:55:42.491Z,996.48
2023-03-31T01:56:42.464Z,996.47
2023-03-31T01:57:42.426Z,996.44
2023-03-31T01:58:42.379Z,996.44
2023-03-31T01:59:42.340Z,996.46
2023-03-31T02:00:42.301Z,996.61
2023-03-31T02:01:42.269Z,996.70
2023-03-31T02:02:42.292Z,996.68
2023-03-31T02:03:43.048Z,996.66
2023-03-31T02:04:42.124Z,996.36
2023-03-31T02:05:42.112Z,996.32
2023-03-31T02:06:42.061Z,996.30
2023-03-31T02:07:41.995Z,996.65
2023-03-31T02:08:41.996Z,996.29
2023-03-31T02:09:41.926Z,996.62
2023-03-31T02:10:41.870Z,996.28
2023-03-31T02:11:41.864Z,996.26
2023-03-31T02:12:41.796Z,996.24
2023-03-31T02:13:41.820Z,996.52
2023-03-31T02:14:41.713Z,996.18
2023-03-31T02:15:41.695Z,996.41
2023-03-31T02:16:41.811Z,996.13
2023-03-31T02:17:41.656Z,996.10
2023-03-31T02:18:41.621Z,996.09
2023-03-31T02:19:41.521Z,996.44
2023-03-31T02:20:41.473Z,996.05
2023-03-31T02:21:41.440Z,996.05
2023-03-31T02:22:41.413Z,996.02
2023-03-31T02:23:41.373Z,995.98
2023-03-31T02:24:41.325Z,995.93
2023-03-31T02:25:41.307Z,996.23
2023-03-31T02:26:41.245Z,995.87
2023-03-31T02:27:41.204Z,996.17
2023-03-31T02:28:41.177Z,996.13
2023-03-31T02:29:41.117Z,996.10
2023-03-31T02:30:41.115Z,995.69
2023-03-31T02:31:41.075Z,995.68
2023-03-31T02:32:41.043Z,995.62
2023-03-31T02:33:41.507Z,995.63
2023-03-31T02:34:40.948Z,995.51
2023-03-31T02:35:40.980Z,995.83
2023-03-31T02:36:40.834Z,995.44
2023-03-31T02:37:40.809Z,995.70
2023-03-31T02:38:40.779Z,995.39
2023-03-31T02:39:40.744Z,995.33
2023-03-31T02:40:40.714Z,995.26
2023-03-31T02:41:40.674Z,995.27
2023-03-31T02:42:40.645Z,995.23
2023-03-31T02:43:40.555Z,995.33
2023-03-31T02:44:40.571Z,995.50
2023-03-31T02:45:40.557Z,995.16
2023-03-31T02:46:40.492Z,995.11
2023-03-31T02:47:40.493Z,995.30
2023-03-31T02:48:40.394Z,995.04
2023-03-31T02:49:40.393Z,995.34
2023-03-31T02:50:40.314Z,994.96
2023-03-31T02:51:40.246Z,994.96
2023-03-31T02:52:40.206Z,995.13
2023-03-31T02:53:40.143Z,994.89
2023-03-31T02:54:40.113Z,994.83
2023-03-31T02:55:40.064Z,994.78
2023-03-31T02:56:40.059Z,994.78
2023-03-31T02:57:40.038Z,994.76
2023-03-31T02:58:39.944Z,994.78
2023-03-31T02:59:39.902Z,994.77
2023-03-31T03:00:39.850Z,995.08
2023-03-31T03:01:39.920Z,994.70
2023-03-31T03:02:39.974Z,994.63
2023-03-31T03:03:39.785Z,994.55
2023-03-31T03:04:40.550Z,994.47
2023-03-31T03:05:41.161Z,994.47
2023-03-31T03:06:39.728Z,994.74
2023-03-31T03:07:40.614Z,994.39
2023-03-31T03:08:40.393Z,994.30
2023-03-31T03:09:39.599Z,994.27
2023-03-31T03:10:39.540Z,994.22
2023-03-31T03:11:39.511Z,994.16
2023-03-31T03:12:40.092Z,994.13
2023-03-31T03:13:39.533Z,994.09
2023-03-31T03:14:39.899Z,994.45
2023-03-31T03:15:39.320Z,994.12
2023-03-31T03:16:39.327Z,994.15
2023-03-31T03:17:39.222Z,994.35
2023-03-31T03:18:39.168Z,994.22
2023-03-31T03:19:39.105Z,994.19
2023-03-31T03:20:39.077Z,994.18
2023-03-31T03:21:39.083Z,994.19
2023-03-31T03:22:39.006Z,994.16
2023-03-31T03:23:38.971Z,994.17
2023-03-31T03:24:38.902Z,994.07
2023-03-31T03:25:38.860Z,994.06
2023-03-31T03:26:38.852Z,993.93
2023-03-31T03:27:38.792Z,993.98
2023-03-31T03:28:38.747Z,993.96
2023-03-31T03:29:38.700Z,994.05
2023-03-31T03:30:38.665Z,994.02
2023-03-31T03:31:38.653Z,994.02
2023-03-31T03:32:38.704Z,994.29
2023-03-31T03:33:38.573Z,994.23
2023-03-31T03:34:38.492Z,994.19
2023-03-31T03:35:38.600Z,993.89
2023-03-31T03:36:38.403Z,993.89
2023-03-31T03:37:38.390Z,993.85
2023-03-31T03:38:38.312Z,994.13
2023-03-31T03:39:38.282Z,993.77
2023-03-31T03:40:38.244Z,993.76
2023-03-31T03:41:38.198Z,994.02
2023-03-31T03:42:38.154Z,993.74
2023-03-31T03:43:38.156Z,993.74
2023-03-31T03:44:38.066Z,993.73
2023-03-31T03:45:38.031Z,993.77
2023-03-31T03:46:38.021Z,993.67
2023-03-31T03:47:38.004Z,993.78
2023-03-31T03:48:37.905Z,993.71
2023-03-31T03:49:37.890Z,993.77
2023-03-31T03:50:37.821Z,993.73
2023-03-31T03:51:37.777Z,993.73
2023-03-31T03:52:37.777Z,993.72
2023-03-31T03:53:37.694Z,993.62
2023-03-31T03:54:37.660Z,993.81
2023-03-31T03:55:37.624Z,993.70
2023-03-31T03:56:37.565Z,993.55
2023-03-31T03:57:37.566Z,993.33
2023-03-31T03:58:37.494Z,993.68
2023-03-31T03:59:37.467Z,993.29
2023-03-31T04:00:37.513Z,993.29
2023-03-31T04:01:37.442Z,993.57
2023-03-31T04:02:37.517Z,993.22
2023-03-31T04:03:37.303Z,993.11
2023-03-31T04:04:37.287Z,993.09
2023-03-31T04:05:37.206Z,993.08
2023-03-31T04:06:37.165Z,993.52
2023-03-31T04:07:37.141Z,993.45
2023-03-31T04:08:37.144Z,993.50
2023-03-31T04:09:37.092Z,993.51
2023-03-31T04:10:37.001Z,993.39
2023-03-31T04:11:36.986Z,993.37
2023-03-31T04:12:36.923Z,993.21
2023-03-31T04:13:36.916Z,993.20
2023-03-31T04:14:36.837Z,993.19
2023-03-31T04:15:36.811Z,993.21
2023-03-31T04:16:36.779Z,993.19
2023-03-31T04:17:36.777Z,993.50
2023-03-31T04:18:36.725Z,993.43
2023-03-31T04:19:36.644Z,993.48
2023-03-31T04:20:36.607Z,993.32
2023-03-31T04:21:36.605Z,993.34
2023-03-31T04:22:36.577Z,993.39
2023-03-31T04:23:36.481Z,993.20
2023-03-31T04:26:25.065Z,992.94
2023-03-31T04:33:58.518Z,992.79
2023-03-31T04:34:27.750Z,993.07
2023-03-31T04:35:27.699Z,993.03
2023-03-31T04:36:27.619Z,992.77
2023-03-31T04:37:27.595Z,992.67
2023-03-31T04:38:27.577Z,992.62
2023-03-31T04:39:27.512Z,992.59
2023-03-31T04:40:27.468Z,992.53
2023-03-31T04:41:27.477Z,992.50
2023-03-31T04:42:28.225Z,992.79
2023-03-31T04:43:27.546Z,992.70
2023-03-31T04:44:27.514Z,992.36
2023-03-31T04:45:27.350Z,992.61
2023-03-31T04:46:27.305Z,992.36
2023-03-31T04:47:27.259Z,992.18
2023-03-31T04:48:27.194Z,992.28
2023-03-31T04:49:27.159Z,992.14
2023-03-31T04:50:27.870Z,992.10
2023-03-31T04:51:27.853Z,992.35
2023-03-31T04:52:30.085Z,992.39
2023-03-31T04:53:27.002Z,992.33
2023-03-31T04:54:30.268Z,992.27
2023-03-31T04:55:26.884Z,992.22
2023-03-31T04:56:26.921Z,991.97
2023-03-31T04:57:27.409Z,992.32
2023-03-31T04:58:26.859Z,991.89
2023-03-31T04:59:26.793Z,992.25
2023-03-31T05:00:26.635Z,992.25
2023-03-31T05:01:26.679Z,991.89
2023-03-31T05:02:27.280Z,991.84
2023-03-31T05:03:26.694Z,991.84
2023-03-31T05:04:26.578Z,991.75
2023-03-31T05:05:26.475Z,991.72
2023-03-31T05:06:27.232Z,991.67
2023-03-31T05:07:26.470Z,991.70
2023-03-31T05:08:27.234Z,991.69
2023-03-31T05:09:26.293Z,991.65
2023-03-31T05:10:26.737Z,991.69
2023-03-31T05:11:26.205Z,991.59
2023-03-31T05:12:26.179Z,991.67
2023-03-31T05:13:26.080Z,991.54
2023-03-31T05:14:26.090Z,991.58
2023-03-31T05:15:26.070Z,991.84
2023-03-31T05:16:25.984Z,991.82
2023-03-31T05:17:25.931Z,991.52
2023-03-31T05:18:25.900Z,991.51
2023-03-31T05:19:25.861Z,991.86
2023-03-31T05:20:25.812Z,991.75
2023-03-31T05:21:25.791Z,991.39
2023-03-31T05:22:25.734Z,991.42
2023-03-31T05:23:25.724Z,991.36
2023-03-31T05:24:25.658Z,991.68
2023-03-31T05:25:25.609Z,991.29
2023-03-31T05:26:25.617Z,991.31
2023-03-31T05:27:25.540Z,991.25
2023-03-31T05:28:25.480Z,991.32
2023-03-31T05:29:25.458Z,991.58
2023-03-31T05:30:25.403Z,991.21
2023-03-31T05:31:25.380Z,991.29
2023-03-31T05:32:25.369Z,991.45
2023-03-31T05:33:25.304Z,991.46
2023-03-31T05:34:25.258Z,991.44
2023-03-31T05:35:25.202Z,991.13
2023-03-31T05:36:25.205Z,991.53
2023-03-31T05:37:25.139Z,991.14
2023-03-31T05:38:25.082Z,991.45
2023-03-31T05:39:25.044Z,991.07
2023-03-31T05:40:25.026Z,991.46
2023-03-31T05:41:24.949Z,991.10
2023-03-31T05:42:24.930Z,991.00
2023-03-31T05:43:24.852Z,990.95
2023-03-31T05:44:24.827Z,991.00
2023-03-31T05:45:24.816Z,990.98
2023-03-31T05:46:24.781Z,990.96
2023-03-31T05:47:24.772Z,990.96
2023-03-31T05:48:24.657Z,990.93
2023-03-31T05:49:24.619Z,991.30
2023-03-31T05:50:24.621Z,991.25
2023-03-31T05:51:24.562Z,991.20
2023-03-31T05:52:24.519Z,990.89
2023-03-31T05:53:24.456Z,991.24
2023-03-31T05:54:24.435Z,990.90
2023-03-31T05:55:24.370Z,990.87
2023-03-31T05:56:24.349Z,990.96
2023-03-31T05:57:24.370Z,991.17
2023-03-31T05:58:24.301Z,990.91
2023-03-31T05:59:24.279Z,990.85
2023-03-31T06:00:24.200Z,990.78
2023-03-31T06:01:24.165Z,990.81
2023-03-31T06:02:24.130Z,990.74
2023-03-31T06:03:24.112Z,991.09
2023-03-31T06:04:24.071Z,990.71
2023-03-31T06:05:23.965Z,990.98
2023-03-31T06:06:23.946Z,990.77
2023-03-31T06:07:23.934Z,990.78
2023-03-31T06:08:23.883Z,990.84
2023-03-31T06:09:23.799Z,990.74
2023-03-31T06:10:23.799Z,990.73
2023-03-31T06:11:23.782Z,991.05
2023-03-31T06:12:23.892Z,991.01
2023-03-31T06:13:23.676Z,990.92
2023-03-31T06:16:02.845Z,990.70
2023-03-31T06:17:02.718Z,990.68
2023-03-31T06:18:02.704Z,990.96
2023-03-31T06:19:02.620Z,990.66
2023-03-31T06:20:07.748Z,990.72
2023-03-31T06:21:02.532Z,990.60
2023-03-31T06:22:02.482Z,990.63
2023-03-31T06:23:02.446Z,990.62
2023-03-31T06:24:02.404Z,990.59
2023-03-31T06:25:02.368Z,990.55
2023-03-31T06:26:02.328Z,990.46
2023-03-31T06:27:02.269Z,990.89
2023-03-31T06:28:02.238Z,990.49
2023-03-31T06:29:02.205Z,990.76
2023-03-31T06:30:02.166Z,990.78
2023-03-31T06:31:02.144Z,990.39
2023-03-31T06:32:02.117Z,990.41
2023-03-31T06:33:02.088Z,990.73
2023-03-31T06:34:01.997Z,990.45
2023-03-31T06:35:01.988Z,990.48
2023-03-31T06:36:02.043Z,990.44
2023-03-31T06:37:04.039Z,990.32
2023-03-31T06:38:01.865Z,990.33
2023-03-31T06:39:01.798Z,990.40
2023-03-31T06:40:01.774Z,990.41
2023-03-31T06:41:01.754Z,990.73
2023-03-31T06:42:01.687Z,990.37
2023-03-31T06:43:01.679Z,990.39
2023-03-31T06:44:01.662Z,990.79
2023-03-31T06:45:01.536Z,990.79
2023-03-31T06:46:01.611Z,990.77
2023-03-31T06:47:01.485Z,990.73
2023-03-31T06:48:01.499Z,990.71
2023-03-31T06:49:01.431Z,990.71
2023-03-31T06:50:01.382Z,990.73
2023-03-31T06:51:01.295Z,990.68
2023-03-31T06:52:01.269Z,990.31
2023-03-31T06:53:01.235Z,990.36
2023-03-31T06:54:01.261Z,990.37
2023-03-31T06:55:01.350Z,990.43
2023-03-31T06:56:01.150Z,990.54
2023-03-31T06:57:01.114Z,990.72
2023-03-31T06:58:01.076Z,990.70
2023-03-31T06:59:00.992Z,990.65
2023-03-31T07:00:00.980Z,990.63
2023-03-31T07:01:01.854Z,990.64
2023-03-31T07:14:37.762Z,990.62
2023-03-31T07:16:41.863Z,990.24
2023-03-31T07:17:34.774Z,990.59
2023-03-31T07:18:41.464Z,990.25
2023-03-31T07:19:34.610Z,990.21
2023-03-31T07:20:34.592Z,990.17
2023-03-31T07:21:34.570Z,990.17
2023-03-31T07:22:34.492Z,990.20
2023-03-31T07:23:45.049Z,990.21
2023-03-31T07:24:37.044Z,990.20
2023-03-31T07:26:37.116Z,990.22
2023-03-31T07:27:48.322Z,990.53
2023-03-31T07:28:50.826Z,990.14
2023-03-31T07:29:42.366Z,990.15
2023-03-31T07:30:52.736Z,990.13
2023-03-31T07:31:51.712Z,990.13
2023-03-31T07:32:35.986Z,990.17
2023-03-31T07:33:41.292Z,990.50
2023-03-31T07:34:38.814Z,990.45
2023-03-31T07:35:37.385Z,990.22
2023-03-31T07:36:39.873Z,990.18
2023-03-31T07:38:35.528Z,990.46
2023-03-31T07:39:43.840Z,990.36
2023-03-31T07:43:13.298Z,990.41
2023-03-31T07:44:08.550Z,990.27
2023-03-31T07:45:07.578Z,990.29
2023-03-31T07:46:30.402Z,990.29
2023-03-31T07:47:08.514Z,990.51
2023-03-31T07:48:06.856Z,990.36
2023-03-31T07:49:08.489Z,990.26
2023-03-31T07:50:08.315Z,990.29
2023-03-31T07:51:08.298Z,990.24
2023-03-31T07:52:08.655Z,990.33
2023-03-31T07:53:07.864Z,990.68
2023-03-31T07:54:06.617Z,990.42
2023-03-31T07:55:07.254Z,990.77
2023-03-31T07:56:07.984Z,990.47
2023-03-31T07:57:08.155Z,990.74
2023-03-31T07:58:17.309Z,990.61
2023-03-31T07:59:08.388Z,990.39
2023-03-31T08:00:13.345Z,990.34
2023-03-31T08:01:12.301Z,990.36
2023-03-31T08:02:07.355Z,990.37
2023-03-31T08:03:06.994Z,990.31
2023-03-31T08:04:06.916Z,990.28
2023-03-31T08:05:06.896Z,990.33
2023-03-31T08:06:07.040Z,990.27
2023-03-31T08:07:07.061Z,990.33
2023-03-31T08:08:07.036Z,990.28
2023-03-31T08:09:06.727Z,990.63
2023-03-31T08:10:05.795Z,990.25
2023-03-31T08:11:06.755Z,990.26
2023-03-31T08:12:06.562Z,990.56
2023-03-31T08:13:06.387Z,990.25
2023-03-31T08:14:06.635Z,990.20
2023-03-31T08:15:15.822Z,990.15
2023-03-31T08:16:06.508Z,990.17
2023-03-31T08:17:06.368Z,990.24
2023-03-31T08:18:06.276Z,990.59
2023-03-31T08:19:06.030Z,990.22
2023-03-31T08:20:07.807Z,990.17
2023-03-31T08:21:05.525Z,990.20
2023-03-31T08:22:06.377Z,990.18
2023-03-31T08:23:06.058Z,990.18
2023-03-31T08:24:05.955Z,990.24
2023-03-31T08:25:06.068Z,990.21
2023-03-31T08:26:06.192Z,990.21
2023-03-31T08:28:05.868Z,990.48
2023-03-31T08:29:05.681Z,990.09
2023-03-31T08:30:04.943Z,990.13
2023-03-31T08:31:04.916Z,990.16
2023-03-31T08:32:04.914Z,990.10
2023-03-31T08:33:05.734Z,990.09
2023-03-31T08:34:05.583Z,990.01
2023-03-31T08:35:05.520Z,989.95
2023-03-31T08:36:05.903Z,989.90
2023-03-31T08:37:05.862Z,989.95
2023-03-31T08:38:05.599Z,989.97
2023-03-31T08:39:05.496Z,989.93
2023-03-31T08:40:05.377Z,990.31
2023-03-31T08:41:05.300Z,990.26
2023-03-31T08:42:05.354Z,990.34
2023-03-31T08:43:05.475Z,990.02
2023-03-31T08:44:05.163Z,990.31
2023-03-31T08:45:05.186Z,990.29
2023-03-31T08:46:05.365Z,989.95
2023-03-31T08:47:05.162Z,989.96
2023-03-31T08:48:06.680Z,989.93
2023-03-31T08:49:05.033Z,990.00
2023-03-31T08:50:05.038Z,990.34
2023-03-31T08:51:05.082Z,989.99
2023-03-31T08:52:04.844Z,990.00
2023-03-31T08:53:04.917Z,990.27
2023-03-31T08:54:04.855Z,990.31
2023-03-31T08:55:04.684Z,990.36
2023-03-31T08:56:05.020Z,990.02
2023-03-31T08:57:04.688Z,990.31
2023-03-31T08:58:04.739Z,990.03
2023-03-31T08:59:04.656Z,990.12
2023-03-31T09:00:04.606Z,990.51
2023-03-31T09:01:03.764Z,990.14
2023-03-31T09:02:04.469Z,990.18
2023-03-31T09:03:06.590Z,990.22
2023-03-31T09:04:06.180Z,990.60
2023-03-31T09:05:04.600Z,990.66
2023-03-31T09:06:04.442Z,990.37
2023-03-31T09:07:04.389Z,990.41
2023-03-31T09:08:04.224Z,990.46
2023-03-31T09:09:04.284Z,990.81
2023-03-31T09:10:04.212Z,990.82
2023-03-31T09:11:04.140Z,990.87
2023-03-31T09:12:04.111Z,990.50
2023-03-31T09:13:04.086Z,990.47
2023-03-31T09:14:04.042Z,990.45
2023-03-31T09:15:03.985Z,990.39
2023-03-31T09:16:04.110Z,990.36
2023-03-31T09:17:03.978Z,990.30
2023-03-31T09:18:04.021Z,990.23
2023-03-31T09:19:02.955Z,990.52
2023-03-31T09:20:03.632Z,990.18
2023-03-31T09:21:03.962Z,990.18
2023-03-31T09:22:03.816Z,990.13
2023-03-31T09:23:03.808Z,990.40
2023-03-31T09:24:03.716Z,990.03
2023-03-31T09:25:03.672Z,990.36
2023-03-31T09:26:03.573Z,989.97
2023-03-31T09:27:03.563Z,989.96
2023-03-31T09:28:03.567Z,990.35
2023-03-31T09:29:03.515Z,990.36
2023-03-31T09:30:03.291Z,989.97
2023-03-31T09:31:02.495Z,989.95
2023-03-31T09:32:02.472Z,989.94
2023-03-31T09:33:02.419Z,989.95
2023-03-31T09:34:02.349Z,989.95
2023-03-31T09:35:02.320Z,989.92
2023-03-31T09:36:02.322Z,989.89
2023-03-31T09:37:02.238Z,990.09
2023-03-31T09:38:02.247Z,990.28
2023-03-31T09:39:02.173Z,989.93
2023-03-31T09:40:02.265Z,989.88
2023-03-31T09:41:02.085Z,989.94
2023-03-31T09:42:02.045Z,989.95
2023-03-31T09:43:02.041Z,990.31
2023-03-31T09:44:01.972Z,989.97
2023-03-31T09:45:01.945Z,989.99
2023-03-31T09:46:09.712Z,990.35
2023-03-31T09:47:01.867Z,990.27
2023-03-31T09:48:01.905Z,989.97
2023-03-31T09:49:01.778Z,990.04
2023-03-31T09:50:01.752Z,990.05
2023-03-31T09:51:01.761Z,990.13
2023-03-31T09:52:01.703Z,989.95
2023-03-31T09:53:01.657Z,990.32
2023-03-31T09:54:01.597Z,990.02
2023-03-31T09:55:01.547Z,990.00
2023-03-31T09:56:01.519Z,990.19
2023-03-31T09:57:01.586Z,990.31
2023-03-31T09:58:01.445Z,990.31
2023-03-31T09:59:01.415Z,990.01
2023-03-31T10:00:01.372Z,990.09
2023-03-31T10:01:01.381Z,990.20
2023-03-31T10:02:01.386Z,989.89
2023-03-31T10:03:01.349Z,990.06
2023-03-31T10:04:01.261Z,990.55
2023-03-31T10:05:07.931Z,990.13
2023-03-31T10:06:01.141Z,989.95
2023-03-31T10:07:01.938Z,989.89
2023-03-31T10:08:01.177Z,989.83
2023-03-31T10:09:01.038Z,990.14
2023-03-31T10:10:03.352Z,989.67
2023-03-31T10:11:10.041Z,989.79
2023-03-31T10:12:03.351Z,989.79
2023-03-31T10:13:00.876Z,989.82
2023-03-31T10:14:00.841Z,989.82
2023-03-31T10:15:00.806Z,989.90
2023-03-31T10:16:00.804Z,989.86
2023-03-31T10:17:00.745Z,989.91
2023-03-31T10:18:00.694Z,989.91
2023-03-31T10:19:00.651Z,989.80
2023-03-31T10:20:00.606Z,989.81
2023-03-31T10:21:00.573Z,989.86
2023-03-31T10:22:00.547Z,989.89
2023-03-31T10:23:00.490Z,990.19
2023-03-31T10:24:00.483Z,989.85
2023-03-31T10:25:00.422Z,989.95
2023-03-31T10:26:00.386Z,989.91
2023-03-31T10:27:00.348Z,990.24
2023-03-31T10:28:00.316Z,989.86
2023-03-31T10:29:00.269Z,990.19
2023-03-31T10:30:00.293Z,989.81
2023-03-31T10:31:00.217Z,990.06
2023-03-31T10:32:00.265Z,989.78
2023-03-31T10:33:08.462Z,989.78
2023-03-31T10:34:00.128Z,990.11
2023-03-31T10:35:00.037Z,989.77
2023-03-31T10:36:00.047Z,989.77
2023-03-31T10:36:59.960Z,989.73
2023-03-31T10:37:59.946Z,989.72
2023-03-31T10:38:59.898Z,990.10
2023-03-31T10:39:59.857Z,990.18
2023-03-31T10:40:59.935Z,990.10
2023-03-31T10:41:59.792Z,989.87
2023-03-31T10:42:59.750Z,989.95
2023-03-31T10:43:59.718Z,990.38
2023-03-31T10:44:59.663Z,990.47
2023-03-31T10:45:59.627Z,990.09
2023-03-31T10:46:59.624Z,990.07
2023-03-31T10:47:59.626Z,990.13
2023-03-31T10:48:59.545Z,990.31
2023-03-31T10:49:59.497Z,990.27
2023-03-31T10:50:59.454Z,989.92
2023-03-31T10:51:59.425Z,989.89
2023-03-31T10:52:59.484Z,989.79
2023-03-31T10:53:59.346Z,990.09
2023-03-31T10:54:59.333Z,989.97
2023-03-31T10:55:59.276Z,989.69
2023-03-31T10:56:59.262Z,990.13
2023-03-31T10:57:59.210Z,990.32
2023-03-31T10:59:05.982Z,990.31
2023-03-31T10:59:59.140Z,990.73
2023-03-31T11:00:59.119Z,990.29
2023-03-31T11:02:00.485Z,990.66
2023-03-31T11:02:59.159Z,990.23
2023-03-31T11:03:59.123Z,990.44
2023-03-31T11:04:58.949Z,990.12
2023-03-31T11:05:58.920Z,989.98
2023-03-31T11:06:58.893Z,989.98
2023-03-31T11:07:58.853Z,990.29
2023-03-31T11:08:58.796Z,990.21
2023-03-31T11:09:58.761Z,989.89
2023-03-31T11:10:58.825Z,989.86
2023-03-31T11:11:58.684Z,989.88
2023-03-31T11:12:58.660Z,990.18
2023-03-31T11:13:58.617Z,989.89
2023-03-31T11:14:58.580Z,989.93
2023-03-31T11:15:58.563Z,989.93
2023-03-31T11:16:58.565Z,989.91
2023-03-31T11:17:58.502Z,990.25
2023-03-31T11:18:58.439Z,989.94
2023-03-31T11:19:58.387Z,989.92
2023-03-31T11:20:58.337Z,989.94
2023-03-31T11:21:58.290Z,990.31
2023-03-31T11:22:58.283Z,990.04
2023-03-31T11:23:58.225Z,990.28
2023-03-31T11:24:58.180Z,990.30
2023-03-31T11:25:58.134Z,990.31
2023-03-31T11:26:58.108Z,989.93
2023-03-31T11:27:58.056Z,990.28
2023-03-31T11:28:58.040Z,990.30
2023-03-31T11:29:57.987Z,989.95
2023-03-31T11:30:57.950Z,989.95
2023-03-31T11:31:57.930Z,989.90
2023-03-31T11:32:57.948Z,989.90
2023-03-31T11:33:57.835Z,989.91
2023-03-31T11:34:57.789Z,990.12
2023-03-31T11:35:57.799Z,990.14
2023-03-31T11:36:57.712Z,989.76
2023-03-31T11:37:57.668Z,989.78
2023-03-31T11:38:57.639Z,990.12
2023-03-31T11:39:57.601Z,989.73
2023-03-31T11:40:57.564Z,989.68
2023-03-31T11:41:57.526Z,989.65
2023-03-31T11:42:57.517Z,989.62
2023-03-31T11:43:57.445Z,990.00
2023-03-31T11:44:57.432Z,989.63
2023-03-31T11:45:57.448Z,989.59
2023-03-31T11:46:57.337Z,989.65
2023-03-31T11:47:57.317Z,989.53
2023-03-31T11:48:57.269Z,989.57
2023-03-31T11:49:57.203Z,989.92
2023-03-31T11:50:57.171Z,989.85
2023-03-31T11:51:57.161Z,989.55
2023-03-31T11:52:57.111Z,989.51
2023-03-31T11:53:57.058Z,989.89
2023-03-31T11:54:57.020Z,989.53
2023-03-31T11:55:56.991Z,989.56
2023-03-31T11:56:56.979Z,989.85
2023-03-31T11:57:56.906Z,989.50
2023-03-31T11:58:56.878Z,989.87
2023-03-31T11:59:56.827Z,989.44
2023-03-31T12:00:56.799Z,989.49
2023-03-31T12:01:56.763Z,989.57
2023-03-31T12:02:56.793Z,989.90
2023-03-31T12:03:56.704Z,989.50
2023-03-31T12:04:56.650Z,989.84
2023-03-31T12:05:56.634Z,989.40
2023-03-31T12:06:56.559Z,989.44
2023-03-31T12:07:56.539Z,989.45
2023-03-31T12:08:56.491Z,989.42
2023-03-31T12:09:56.471Z,989.79
2023-03-31T12:10:56.451Z,989.43
2023-03-31T12:11:56.375Z,989.35
2023-03-31T12:12:56.365Z,989.33
2023-03-31T12:13:56.346Z,989.34
2023-03-31T12:14:56.263Z,989.29
2023-03-31T12:15:56.286Z,989.58
2023-03-31T12:16:56.200Z,989.56
2023-03-31T12:17:56.203Z,989.49
2023-03-31T12:18:56.118Z,989.18
2023-03-31T12:19:56.084Z,989.55
2023-03-31T12:20:56.048Z,989.31
2023-03-31T12:21:55.992Z,989.31
2023-03-31T12:22:55.959Z,989.64
2023-03-31T12:23:55.918Z,989.25
2023-03-31T12:24:55.886Z,989.55
2023-03-31T12:25:55.869Z,989.29
2023-03-31T12:26:55.810Z,989.65
2023-03-31T12:27:55.768Z,989.63
2023-03-31T12:28:55.764Z,989.37
2023-03-31T12:29:55.703Z,989.39
2023-03-31T12:30:55.656Z,989.27
2023-03-31T12:31:55.697Z,989.25
2023-03-31T12:32:55.674Z,989.26
2023-03-31T12:33:55.563Z,989.63
2023-03-31T12:34:55.507Z,989.29
2023-03-31T12:35:55.504Z,989.27
2023-03-31T12:36:55.706Z,989.26
2023-03-31T12:37:55.415Z,989.21
2023-03-31T12:38:55.365Z,989.24
2023-03-31T12:39:55.318Z,989.23
2023-03-31T12:40:55.267Z,989.63
2023-03-31T12:41:55.238Z,989.28
2023-03-31T12:42:55.194Z,989.19
2023-03-31T12:43:55.178Z,989.13
2023-03-31T12:44:55.148Z,989.47
2023-03-31T12:45:55.101Z,989.45
2023-03-31T12:46:55.983Z,989.20
2023-03-31T12:47:55.029Z,989.08
2023-03-31T12:48:55.486Z,989.06
2023-03-31T12:49:54.930Z,989.04
2023-03-31T12:50:54.906Z,989.32
2023-03-31T12:51:54.846Z,989.05
2023-03-31T12:52:54.828Z,989.01
2023-03-31T12:53:54.777Z,989.13
2023-03-31T12:54:54.738Z,989.29
2023-03-31T12:55:54.688Z,988.92
2023-03-31T12:56:54.751Z,988.85